Time;durP1;ratioP1;P1;durP2;ratioP2;P2;SDS_P1;SDS_P2;PMS_P1;PMS_P2;Temp;Humidity;BMP_temperature;BMP_pressure;BME280_temperature;BME280_humidity;BME280_pressure;Samples;Min_cycle;Max_cycle;Signal;HPM_P1;HPM_P2
2024/01/15 00:02:16;;;;;;;5.97;1.70;;;1.50;99.90;;;;;;5033673;28;20530;-51
2024/01/15 00:04:41;;;;;;;14.97;2.50;;;1.50;1.00;;;;;;5033364;28;20649;-51
2024/01/15 00:07:07;;;;;;;8.17;2.43;;;1.50;99.90;;;;;;5033398;28;20184;-51
2024/01/15 00:09:33;;;;;;;8.90;2.40;;;1.50;99.90;;;;;;5032761;28;20285;-51
2024/01/15 00:12:00;;;;;;;9.70;2.60;;;1.50;99.90;;;;;;5033290;28;20822;-51
2024/01/15 00:14:26;;;;;;;8.17;2.07;;;1.60;99.90;;;;;;5033066;28;20246;-52
2024/01/15 00:16:52;;;;;;;10.07;1.80;;;1.50;99.90;;;;;;5033058;28;20809;-51
2024/01/15 00:19:18;;;;;;;12.03;2.53;;;1.50;99.90;;;;;;5033363;28;20474;-51
2024/01/15 00:21:44;;;;;;;6.23;1.83;;;1.50;1.00;;;;;;5033339;28;20449;-51
2024/01/15 00:24:10;;;;;;;10.37;1.83;;;1.50;1.00;;;;;;5033220;28;20180;-51
2024/01/15 00:26:36;;;;;;;7.43;2.23;;;1.50;1.00;;;;;;5036060;28;20429;-51
2024/01/15 00:29:03;;;;;;;10.53;2.37;;;1.40;1.00;;;;;;5036905;28;20191;-51
2024/01/15 00:31:29;;;;;;;10.67;1.90;;;1.40;1.00;;;;;;5036787;28;20187;-51
2024/01/15 00:33:55;;;;;;;11.20;2.23;;;1.40;1.00;;;;;;5036612;28;20902;-52
2024/01/15 00:36:21;;;;;;;7.60;2.60;;;1.50;1.00;;;;;;5036559;28;20465;-51
2024/01/15 00:38:47;;;;;;;12.87;2.40;;;1.50;1.00;;;;;;5037205;28;20842;-51
2024/01/15 00:41:13;;;;;;;14.80;2.50;;;1.60;1.00;;;;;;5036960;28;20187;-51
2024/01/15 00:43:39;;;;;;;18.43;3.63;;;1.60;1.00;;;;;;5036450;28;20433;-51
2024/01/15 00:46:05;;;;;;;27.77;3.00;;;1.60;1.00;;;;;;5036696;28;20429;-51
2024/01/15 00:48:30;;;;;;;13.40;3.20;;;1.60;1.00;;;;;;5036769;28;20187;-51
2024/01/15 00:50:56;;;;;;;8.87;2.20;;;1.60;1.00;;;;;;5036649;28;20426;-52
2024/01/15 00:53:22;;;;;;;11.70;2.80;;;1.60;1.00;;;;;;5032899;28;20181;-51
2024/01/15 00:55:50;;;;;;;15.10;2.50;;;1.60;1.00;;;;;;5034500;28;20207;-51
2024/01/15 00:58:16;;;;;;;13.30;2.37;;;1.60;1.00;;;;;;5034326;28;20184;-51
2024/01/15 01:00:42;;;;;;;14.20;2.60;;;1.50;1.00;;;;;;5033962;28;20532;-51
2024/01/15 01:03:08;;;;;;;14.67;2.80;;;1.50;1.00;;;;;;5033921;28;20233;-51
2024/01/15 01:05:34;;;;;;;27.17;3.23;;;1.40;1.00;;;;;;5033867;28;20194;-51
2024/01/15 01:08:00;;;;;;;11.37;2.67;;;1.40;1.00;;;;;;5033526;28;20478;-51
2024/01/15 01:10:25;;;;;;;13.87;2.60;;;1.40;1.00;;;;;;5034848;28;20417;-51
2024/01/15 01:12:51;;;;;;;10.57;2.40;;;1.40;1.00;;;;;;5033181;28;20639;-51
2024/01/15 01:15:17;;;;;;;16.43;2.43;;;1.50;1.00;;;;;;5033437;28;20643;-51
2024/01/15 01:17:42;;;;;;;14.53;2.50;;;1.40;1.00;;;;;;5033678;28;20265;-51
2024/01/15 01:20:10;;;;;;;21.90;2.47;;;1.50;1.00;;;;;;5032713;28;20180;-51
2024/01/15 01:22:36;;;;;;;11.30;2.07;;;1.50;1.00;;;;;;5033540;28;20208;-51
2024/01/15 01:25:01;;;;;;;11.70;2.50;;;1.50;1.00;;;;;;5033081;28;20940;-51
2024/01/15 01:27:27;;;;;;;22.70;2.60;;;1.60;1.00;;;;;;5033847;28;20190;-52
2024/01/15 01:29:52;;;;;;;13.17;2.40;;;1.70;1.00;;;;;;5033258;28;20210;-51
2024/01/15 01:32:18;;;;;;;22.70;2.97;;;1.70;1.00;;;;;;5033983;28;20185;-51
2024/01/15 01:34:44;;;;;;;12.53;2.47;;;1.70;1.00;;;;;;5034168;28;20184;-51
2024/01/15 01:37:13;;;;;;;15.43;2.60;;;1.80;1.00;;;;;;5031432;28;20200;-51
2024/01/15 01:39:39;;;;;;;10.07;1.93;;;1.80;99.90;;;;;;5032619;28;20727;-51
2024/01/15 01:42:05;;;;;;;13.77;2.60;;;1.90;99.90;;;;;;5034637;28;20457;-51
2024/01/15 01:44:30;;;;;;;14.73;2.47;;;1.90;99.90;;;;;;5033163;28;20175;-51
2024/01/15 01:46:58;;;;;;;14.77;2.20;;;1.90;99.90;;;;;;5032835;28;20453;-51
2024/01/15 01:49:27;;;;;;;13.57;2.13;;;1.90;99.90;;;;;;5033306;28;20168;-51
2024/01/15 01:51:56;;;;;;;16.40;2.63;;;1.90;99.90;;;;;;5033111;28;20423;-51
2024/01/15 01:54:22;;;;;;;9.57;2.30;;;1.90;99.90;;;;;;5033265;28;20438;-51
2024/01/15 01:56:48;;;;;;;14.37;2.57;;;1.90;99.90;;;;;;5033510;28;20789;-51
2024/01/15 01:59:14;;;;;;;18.17;2.73;;;1.80;99.90;;;;;;5032962;28;20192;-51
2024/01/15 02:01:41;;;;;;;9.63;2.50;;;1.80;99.90;;;;;;5032318;28;20984;-52
2024/01/15 02:04:08;;;;;;;19.43;2.67;;;1.80;99.90;;;;;;5033786;28;20502;-51
2024/01/15 02:06:34;;;;;;;13.00;2.10;;;1.80;99.90;;;;;;5032281;28;20430;-50
2024/01/15 02:09:00;;;;;;;11.20;2.63;;;1.80;99.90;;;;;;5032968;28;20472;-51
2024/01/15 02:11:26;;;;;;;11.73;3.17;;;1.80;1.00;;;;;;5033400;28;20188;-51
2024/01/15 02:13:51;;;;;;;8.50;2.10;;;1.80;1.00;;;;;;5032305;28;20925;-52
2024/01/15 02:16:17;;;;;;;16.10;2.57;;;1.80;99.90;;;;;;5032876;28;20539;-52
2024/01/15 02:18:44;;;;;;;16.13;2.37;;;1.70;99.90;;;;;;5031136;28;20616;-52
2024/01/15 02:21:10;;;;;;;11.87;2.77;;;1.70;1.00;;;;;;5032983;28;20176;-52
2024/01/15 02:23:37;;;;;;;8.73;2.60;;;1.70;1.00;;;;;;5032927;28;20432;-51
2024/01/15 02:26:04;;;;;;;9.80;2.17;;;1.70;1.00;;;;;;5032169;28;20505;-51
2024/01/15 02:28:29;;;;;;;7.90;1.90;;;1.70;1.00;;;;;;5032317;28;20526;-51
2024/01/15 02:30:55;;;;;;;9.80;2.23;;;1.60;1.00;;;;;;5032249;28;20525;-51
2024/01/15 02:33:21;;;;;;;15.73;2.67;;;1.60;1.00;;;;;;5031710;28;20198;-52
2024/01/15 02:35:49;;;;;;;12.97;2.20;;;1.70;1.00;;;;;;5032842;28;20178;-52
2024/01/15 02:38:15;;;;;;;10.00;2.70;;;1.70;1.00;;;;;;5031768;28;20199;-52
2024/01/15 02:40:43;;;;;;;11.43;2.20;;;1.80;1.00;;;;;;5032668;28;20445;-52
2024/01/15 02:43:08;;;;;;;8.00;2.10;;;1.80;1.00;;;;;;5031541;28;20921;-52
2024/01/15 02:45:34;;;;;;;14.90;2.60;;;1.80;1.00;;;;;;5032847;28;20421;-52
2024/01/15 02:47:59;;;;;;;12.60;2.50;;;1.80;1.00;;;;;;5031190;28;20191;-52
2024/01/15 02:50:25;;;;;;;13.23;2.60;;;1.80;1.00;;;;;;5032157;28;20187;-52
2024/01/15 02:52:51;;;;;;;11.83;2.57;;;1.80;1.00;;;;;;5032259;28;20582;-52
2024/01/15 02:55:16;;;;;;;11.70;2.27;;;1.90;1.00;;;;;;5032264;28;20180;-51
2024/01/15 02:57:42;;;;;;;10.90;2.80;;;1.90;1.00;;;;;;5031274;28;20209;-52
2024/01/15 03:00:08;;;;;;;12.67;2.47;;;1.90;1.00;;;;;;5032106;28;20179;-52
2024/01/15 03:02:43;;;;;;;15.47;2.30;;;1.90;1.00;;;;;;5031054;28;20175;-51
2024/01/15 03:05:11;;;;;;;10.50;1.83;;;1.90;1.00;;;;;;5032286;28;20431;-51
2024/01/15 03:07:37;;;;;;;11.27;2.20;;;1.90;1.00;;;;;;5031876;28;20429;-52
2024/01/15 03:10:03;;;;;;;14.97;2.73;;;1.90;1.00;;;;;;5031198;28;20411;-51
2024/01/15 03:12:28;;;;;;;13.53;2.40;;;1.90;1.00;;;;;;5032194;28;20191;-51
2024/01/15 03:14:54;;;;;;;14.83;2.63;;;2.00;1.00;;;;;;5031117;28;20544;-51
2024/01/15 03:17:20;;;;;;;14.97;3.17;;;1.90;1.00;;;;;;5031202;28;20701;-51
2024/01/15 03:19:45;;;;;;;17.10;2.33;;;2.00;1.00;;;;;;5032472;28;20188;-51
2024/01/15 03:22:11;;;;;;;15.23;2.43;;;2.00;1.00;;;;;;5031385;28;20262;-51
2024/01/15 03:24:37;;;;;;;16.57;3.57;;;2.00;1.00;;;;;;5031299;28;20207;-51
2024/01/15 03:27:02;;;;;;;16.03;2.60;;;2.00;1.00;;;;;;5031673;28;20188;-51
2024/01/15 03:29:28;;;;;;;9.90;2.10;;;2.00;1.00;;;;;;5030672;28;20592;-51
2024/01/15 03:31:54;;;;;;;16.20;2.50;;;2.00;1.00;;;;;;5031215;28;20176;-51
2024/01/15 03:34:19;;;;;;;17.30;3.03;;;2.00;1.00;;;;;;5032036;28;20179;-51
2024/01/15 03:36:45;;;;;;;12.17;2.50;;;1.90;1.00;;;;;;5031059;28;20247;-51
2024/01/15 03:39:11;;;;;;;26.60;3.87;;;1.90;1.00;;;;;;5030545;28;20206;-52
2024/01/15 03:41:36;;;;;;;18.97;3.13;;;1.90;1.00;;;;;;5031386;28;20180;-51
2024/01/15 03:44:02;;;;;;;16.03;2.57;;;1.90;1.00;;;;;;5031506;28;20258;-52
2024/01/15 03:46:28;;;;;;;19.67;2.50;;;1.90;1.00;;;;;;5031942;28;20669;-51
2024/01/15 03:48:53;;;;;;;18.83;2.63;;;1.90;1.00;;;;;;5031146;28;20210;-52
2024/01/15 03:51:19;;;;;;;15.43;2.50;;;1.80;99.90;;;;;;5030025;28;20188;-52
2024/01/15 03:53:45;;;;;;;11.60;2.40;;;1.80;1.00;;;;;;5030713;28;20266;-51
2024/01/15 03:56:10;;;;;;;24.97;3.10;;;1.70;1.00;;;;;;5031662;28;20553;-51
2024/01/15 03:58:36;;;;;;;14.80;2.53;;;1.70;1.00;;;;;;5030955;28;20175;-51
2024/01/15 04:01:02;;;;;;;11.60;2.50;;;1.70;1.00;;;;;;5034257;28;20225;-51
2024/01/15 04:03:27;;;;;;;24.23;3.40;;;1.70;1.00;;;;;;5034745;28;20236;-51
2024/01/15 04:05:53;;;;;;;12.23;2.47;;;1.70;1.00;;;;;;5035065;28;20203;-51
2024/01/15 04:08:18;;;;;;;16.60;2.83;;;1.70;1.00;;;;;;5035142;28;20234;-51
2024/01/15 04:10:44;;;;;;;16.00;2.30;;;1.80;1.00;;;;;;5034898;28;20269;-51
2024/01/15 04:13:10;;;;;;;22.37;3.10;;;1.80;99.90;;;;;;5035222;28;20183;-52
2024/01/15 04:15:36;;;;;;;20.10;2.67;;;1.70;99.90;;;;;;5033935;28;20190;-51
2024/01/15 04:18:02;;;;;;;15.33;2.50;;;1.80;99.90;;;;;;5034891;28;20624;-51
2024/01/15 04:20:28;;;;;;;21.00;2.40;;;1.70;99.90;;;;;;5035327;28;20418;-51
2024/01/15 04:22:54;;;;;;;20.30;2.20;;;1.70;99.90;;;;;;5034466;28;20468;-51
2024/01/15 04:25:19;;;;;;;10.77;2.67;;;1.70;43.30;;;;;;5035085;28;20608;-51
2024/01/15 04:27:45;;;;;;;16.57;2.57;;;1.70;1.00;;;;;;5034662;28;20194;-52
2024/01/15 04:30:10;;;;;;;32.17;3.33;;;1.70;1.00;;;;;;5034660;28;20190;-52
2024/01/15 04:32:36;;;;;;;15.30;2.47;;;1.70;1.00;;;;;;5033751;28;20190;-51
2024/01/15 04:35:02;;;;;;;18.57;2.73;;;1.70;1.00;;;;;;5034264;28;20188;-51
2024/01/15 04:37:27;;;;;;;16.13;2.60;;;1.80;1.00;;;;;;5034044;28;20210;-52
2024/01/15 04:39:54;;;;;;;19.23;4.00;;;1.90;99.90;;;;;;5034542;28;20255;-51
2024/01/15 04:42:21;;;;;;;17.77;3.30;;;1.90;1.00;;;;;;5033739;28;20184;-51
2024/01/15 04:44:47;;;;;;;18.77;3.30;;;2.00;1.00;;;;;;5035232;28;20447;-51
2024/01/15 04:47:12;;;;;;;14.50;2.73;;;2.00;99.90;;;;;;5033761;28;20950;-52
2024/01/15 04:49:38;;;;;;;16.30;2.80;;;2.10;31.60;;;;;;5034725;28;20422;-52
2024/01/15 04:52:03;;;;;;;24.23;3.00;;;2.10;1.00;;;;;;5034608;28;20214;-51
2024/01/15 04:54:29;;;;;;;19.50;2.80;;;2.10;1.00;;;;;;5033990;28;20785;-51
2024/01/15 04:56:54;;;;;;;24.90;3.30;;;2.00;1.00;;;;;;5034044;28;20298;-51
2024/01/15 04:59:20;;;;;;;28.13;2.90;;;2.00;1.00;;;;;;5034362;28;20187;-52
2024/01/15 05:01:45;;;;;;;23.90;3.30;;;2.00;1.00;;;;;;5034236;28;20199;-51
2024/01/15 05:04:11;;;;;;;29.70;3.57;;;2.10;1.00;;;;;;5033818;28;20180;-52
2024/01/15 05:06:36;;;;;;;19.57;3.40;;;2.00;1.00;;;;;;5034041;28;20190;-51
2024/01/15 05:09:03;;;;;;;21.47;3.80;;;2.00;1.00;;;;;;5034070;28;20245;-52
2024/01/15 05:11:29;;;;;;;30.40;4.13;;;2.00;1.00;;;;;;5033838;28;20191;-51
2024/01/15 05:13:54;;;;;;;24.27;3.70;;;2.00;1.00;;;;;;5032952;28;20417;-51
2024/01/15 05:16:20;;;;;;;26.00;3.40;;;2.00;1.00;;;;;;5033801;28;20559;-51
2024/01/15 05:18:45;;;;;;;20.40;2.80;;;2.10;99.90;;;;;;5034243;28;20529;-52
2024/01/15 05:21:11;;;;;;;17.90;3.57;;;2.10;56.10;;;;;;5034013;28;20202;-52
2024/01/15 05:23:36;;;;;;;26.03;3.83;;;2.10;1.00;;;;;;5033255;28;20233;-51
2024/01/15 05:26:02;;;;;;;21.00;2.77;;;2.10;99.90;;;;;;5033414;28;20178;-51
2024/01/15 05:28:28;;;;;;;20.50;3.80;;;2.10;22.00;;;;;;5033698;28;20230;-52
2024/01/15 05:30:55;;;;;;;23.00;3.20;;;2.10;1.00;;;;;;5034002;28;20201;-51
2024/01/15 05:33:23;;;;;;;15.03;3.03;;;2.10;99.90;;;;;;5033605;28;20646;-51
2024/01/15 05:35:50;;;;;;;35.97;4.13;;;2.10;1.00;;;;;;5032463;28;20488;-51
2024/01/15 05:38:16;;;;;;;24.50;3.30;;;2.10;1.00;;;;;;5033235;28;20438;-51
2024/01/15 05:40:41;;;;;;;27.03;3.37;;;2.10;99.90;;;;;;5033133;28;20508;-51
2024/01/15 05:43:07;;;;;;;18.50;3.37;;;2.10;63.60;;;;;;5033514;28;20268;-51
2024/01/15 05:45:35;;;;;;;18.27;3.63;;;2.00;1.00;;;;;;5033181;28;20205;-51
2024/01/15 05:48:01;;;;;;;23.93;3.40;;;2.00;1.00;;;;;;5033351;28;20194;-51
2024/01/15 05:50:26;;;;;;;20.03;2.77;;;2.00;1.00;;;;;;5033343;28;20417;-51
2024/01/15 05:52:52;;;;;;;22.90;2.70;;;1.90;1.00;;;;;;5032377;28;20182;-51
2024/01/15 05:55:18;;;;;;;23.17;3.57;;;1.90;1.00;;;;;;5033995;28;20184;-51
2024/01/15 05:57:44;;;;;;;21.80;3.10;;;1.90;1.00;;;;;;5033196;28;20690;-52
2024/01/15 06:00:10;;;;;;;24.17;4.10;;;1.90;1.00;;;;;;5032573;28;20790;-52
2024/01/15 06:02:38;;;;;;;15.53;2.60;;;1.80;1.00;;;;;;5032523;28;20427;-51
2024/01/15 06:05:04;;;;;;;21.47;2.87;;;1.90;93.60;;;;;;5033468;28;20420;-51
2024/01/15 06:07:29;;;;;;;21.70;3.47;;;1.90;99.90;;;;;;5032897;28;20766;-51
2024/01/15 06:09:56;;;;;;;17.20;3.00;;;1.90;99.90;;;;;;5032961;28;20242;-52
2024/01/15 06:12:22;;;;;;;19.53;3.00;;;1.90;36.40;;;;;;5032608;28;20188;-51
2024/01/15 06:14:48;;;;;;;28.23;3.77;;;1.90;1.00;;;;;;5032741;28;20418;-51
2024/01/15 06:17:14;;;;;;;24.37;3.60;;;1.90;94.10;;;;;;5032571;28;20218;-50
2024/01/15 06:19:39;;;;;;;16.17;3.00;;;1.90;99.90;;;;;;5032455;28;20190;-51
2024/01/15 06:22:05;;;;;;;25.37;3.37;;;1.90;99.90;;;;;;5032832;28;20187;-51
2024/01/15 06:24:30;;;;;;;17.37;3.50;;;1.80;1.00;;;;;;5031796;28;20306;-51
2024/01/15 06:26:56;;;;;;;19.27;3.13;;;1.90;95.70;;;;;;5033216;28;20189;-51
2024/01/15 06:29:21;;;;;;;15.53;2.87;;;1.90;99.90;;;;;;5031501;28;20190;-51
2024/01/15 06:31:47;;;;;;;27.67;2.93;;;2.00;1.00;;;;;;5033002;28;20202;-51
2024/01/15 06:34:15;;;;;;;16.53;2.93;;;2.10;99.90;;;;;;5032550;28;20535;-52
2024/01/15 06:36:40;;;;;;;15.27;3.27;;;2.10;1.00;;;;;;5031880;28;20261;-52
2024/01/15 06:39:06;;;;;;;27.17;3.63;;;2.10;1.00;;;;;;5032693;28;20426;-51
2024/01/15 06:41:32;;;;;;;25.90;3.63;;;2.10;99.90;;;;;;5031616;28;20179;-51
2024/01/15 06:43:57;;;;;;;17.73;3.50;;;2.10;99.90;;;;;;5032700;28;20242;-52
2024/01/15 06:46:23;;;;;;;19.83;3.17;;;2.10;99.90;;;;;;5032152;28;20219;-52
2024/01/15 06:48:49;;;;;;;22.20;2.83;;;2.20;29.20;;;;;;5031646;28;20598;-52
2024/01/15 06:51:16;;;;;;;22.83;3.27;;;2.20;1.00;;;;;;5031529;28;20184;-51
2024/01/15 06:53:41;;;;;;;22.17;3.27;;;2.20;99.90;;;;;;5032559;28;20513;-51
2024/01/15 06:56:07;;;;;;;12.63;3.13;;;2.20;57.20;;;;;;5031966;28;20453;-51
2024/01/15 06:58:32;;;;;;;22.13;2.90;;;2.20;1.00;;;;;;5032199;28;20192;-51
2024/01/15 07:00:59;;;;;;;23.40;3.17;;;2.20;1.00;;;;;;5030292;28;20713;-51
2024/01/15 07:03:24;;;;;;;14.50;3.13;;;2.30;99.90;;;;;;5032631;28;20175;-51
2024/01/15 07:05:50;;;;;;;20.43;3.17;;;2.30;99.90;;;;;;5031858;28;20501;-50
2024/01/15 07:08:16;;;;;;;22.53;2.80;;;2.30;99.90;;;;;;5031848;28;20311;-51
2024/01/15 07:10:41;;;;;;;16.90;3.30;;;2.30;41.40;;;;;;5030464;28;20187;-51
2024/01/15 07:13:07;;;;;;;14.67;2.50;;;2.30;1.00;;;;;;5032498;28;20180;-51
2024/01/15 07:15:32;;;;;;;16.13;4.10;;;2.20;1.00;;;;;;5031218;28;20179;-50
2024/01/15 07:17:58;;;;;;;19.47;2.17;;;2.30;1.00;;;;;;5032172;28;20238;-52
2024/01/15 07:20:24;;;;;;;13.97;2.23;;;2.20;1.00;;;;;;5031911;28;20187;-51
2024/01/15 07:22:49;;;;;;;17.70;2.70;;;2.20;1.00;;;;;;5031355;28;20266;-51
2024/01/15 07:25:16;;;;;;;10.60;2.77;;;2.20;1.00;;;;;;5030893;28;20215;-51
2024/01/15 07:27:44;;;;;;;10.20;2.33;;;2.30;1.00;;;;;;5032258;28;20193;-52
2024/01/15 07:30:11;;;;;;;8.47;2.80;;;2.30;99.90;;;;;;5031091;28;20413;-52
2024/01/15 07:32:37;;;;;;;21.60;2.00;;;2.30;99.90;;;;;;5030796;28;20487;-52
2024/01/15 07:35:03;;;;;;;10.50;2.03;;;2.30;99.90;;;;;;5031523;28;21249;-52
2024/01/15 07:37:28;;;;;;;8.93;2.27;;;2.30;99.90;;;;;;5031854;28;20219;-51
2024/01/15 07:39:54;;;;;;;15.47;2.70;;;2.30;99.90;;;;;;5031119;28;20454;-51
2024/01/15 07:42:19;;;;;;;16.03;2.40;;;2.30;99.90;;;;;;5030112;28;20229;-52
2024/01/15 07:44:45;;;;;;;11.77;2.10;;;2.30;99.90;;;;;;5031630;28;20189;-53
2024/01/15 07:47:11;;;;;;;15.23;2.47;;;2.40;99.90;;;;;;5030573;28;20278;-52
2024/01/15 07:49:36;;;;;;;11.23;2.20;;;2.30;99.90;;;;;;5031314;28;20185;-50
2024/01/15 07:52:02;;;;;;;17.10;1.63;;;2.30;99.90;;;;;;5032252;28;20187;-50
2024/01/15 07:54:28;;;;;;;7.17;1.87;;;2.20;99.90;;;;;;5031185;28;20266;-49
2024/01/15 07:56:57;;;;;;;14.17;2.13;;;2.20;99.90;;;;;;5029723;28;20654;-50
2024/01/15 07:59:23;;;;;;;7.33;1.80;;;2.20;99.90;;;;;;5031176;28;20277;-51
2024/01/15 08:01:50;;;;;;;10.47;2.50;;;2.20;99.90;;;;;;5030907;28;20440;-50
2024/01/15 08:04:15;;;;;;;15.87;2.10;;;2.20;99.90;;;;;;5031351;28;21084;-49
2024/01/15 08:06:41;;;;;;;12.53;2.27;;;2.20;99.90;;;;;;5030560;28;20560;-49
2024/01/15 08:09:08;;;;;;;6.17;1.40;;;2.20;99.90;;;;;;5029592;28;20254;-49
2024/01/15 08:11:34;;;;;;;16.00;2.50;;;2.30;99.90;;;;;;5030791;28;20548;-49
2024/01/15 08:14:00;;;;;;;19.97;2.30;;;2.30;99.90;;;;;;5030997;28;20418;-49
2024/01/15 08:16:27;;;;;;;11.60;2.40;;;2.30;99.90;;;;;;5030537;28;20813;-49
2024/01/15 08:18:53;;;;;;;16.67;2.13;;;2.40;99.90;;;;;;5031189;28;20180;-50
2024/01/15 08:21:19;;;;;;;13.17;2.77;;;2.30;99.90;;;;;;5030905;28;21000;-51
2024/01/15 08:23:44;;;;;;;15.47;2.33;;;2.30;99.90;;;;;;5030551;28;20505;-50
2024/01/15 08:26:10;;;;;;;6.40;1.93;;;2.40;99.90;;;;;;5030585;28;20185;-50
2024/01/15 08:28:36;;;;;;;11.80;1.87;;;2.30;99.90;;;;;;5030535;28;20542;-50
2024/01/15 08:31:02;;;;;;;10.83;2.07;;;2.30;99.90;;;;;;5030995;28;20421;-50
2024/01/15 08:33:28;;;;;;;14.27;2.13;;;2.40;99.90;;;;;;5030796;28;20188;-49
2024/01/15 08:35:54;;;;;;;14.50;1.87;;;2.40;99.90;;;;;;5029483;28;20425;-49
2024/01/15 08:38:20;;;;;;;8.53;1.83;;;2.50;99.90;;;;;;5031350;28;20310;-49
2024/01/15 08:40:45;;;;;;;17.33;2.27;;;2.50;99.90;;;;;;5031265;28;20187;-49
2024/01/15 08:43:11;;;;;;;9.37;2.33;;;2.50;99.90;;;;;;5030342;28;20476;-50
2024/01/15 08:45:36;;;;;;;9.53;2.00;;;2.50;99.90;;;;;;5030499;28;20175;-50
2024/01/15 08:48:03;;;;;;;8.07;1.80;;;2.50;99.90;;;;;;5033383;28;20190;-50
2024/01/15 08:50:31;;;;;;;16.83;2.37;;;2.50;99.90;;;;;;5035088;28;20632;-50
2024/01/15 08:52:57;;;;;;;10.47;2.40;;;2.40;99.90;;;;;;5033779;28;20910;-49
2024/01/15 08:55:23;;;;;;;5.90;1.77;;;2.40;99.90;;;;;;5033749;28;20444;-50
2024/01/15 08:57:49;;;;;;;11.13;1.60;;;2.30;99.90;;;;;;5033527;28;20237;-49
2024/01/15 09:00:15;;;;;;;10.53;1.70;;;2.30;1.00;;;;;;5034649;28;20187;-49
2024/01/15 09:02:41;;;;;;;11.07;2.03;;;2.30;1.00;;;;;;5034332;28;20446;-49
2024/01/15 09:05:07;;;;;;;6.67;1.97;;;2.30;1.00;;;;;;5033866;28;20434;-49
2024/01/15 09:07:32;;;;;;;11.43;2.00;;;2.30;1.00;;;;;;5034587;28;20422;-49
2024/01/15 09:09:59;;;;;;;13.33;3.03;;;2.30;1.00;;;;;;5033665;28;20274;-49
2024/01/15 09:12:28;;;;;;;6.40;2.40;;;2.20;1.00;;;;;;5034008;28;20202;-49
2024/01/15 09:14:53;;;;;;;12.37;2.77;;;2.20;1.00;;;;;;5033517;28;20461;-50
2024/01/15 09:17:20;;;;;;;12.80;2.27;;;2.20;1.00;;;;;;5033696;28;20501;-50
2024/01/15 09:19:45;;;;;;;16.63;2.50;;;2.20;1.00;;;;;;5033192;28;20192;-49
2024/01/15 09:22:14;;;;;;;14.37;2.30;;;2.20;1.00;;;;;;5034391;28;20424;-50
2024/01/15 09:24:41;;;;;;;14.40;2.47;;;2.10;1.00;;;;;;5033763;28;20268;-50
2024/01/15 09:27:07;;;;;;;8.80;2.00;;;2.00;99.90;;;;;;5033938;28;20771;-50
2024/01/15 09:29:32;;;;;;;9.20;2.33;;;2.00;99.90;;;;;;5032746;28;20425;-49
2024/01/15 09:31:58;;;;;;;10.47;2.57;;;2.00;99.90;;;;;;5033673;28;20638;-49
2024/01/15 09:34:24;;;;;;;7.70;1.80;;;2.00;1.00;;;;;;5034089;28;20242;-50
2024/01/15 09:36:49;;;;;;;11.97;2.40;;;2.00;1.00;;;;;;5033475;28;20457;-50
2024/01/15 09:39:15;;;;;;;8.17;2.23;;;2.00;99.90;;;;;;5032148;28;20191;-49
2024/01/15 09:41:41;;;;;;;12.77;2.20;;;2.10;99.90;;;;;;5033189;28;20238;-50
2024/01/15 09:44:08;;;;;;;9.73;2.23;;;2.10;99.90;;;;;;5034364;28;20612;-50
2024/01/15 09:46:35;;;;;;;10.77;2.30;;;2.20;99.90;;;;;;5033001;28;20180;-50
2024/01/15 09:49:01;;;;;;;8.00;1.53;;;2.10;98.70;;;;;;5033844;28;20426;-49
2024/01/15 09:51:30;;;;;;;11.90;2.10;;;2.00;1.00;;;;;;5033476;28;20520;-49
2024/01/15 09:53:57;;;;;;;11.53;1.80;;;1.80;1.00;;;;;;5035264;28;20458;-49
2024/01/15 09:56:23;;;;;;;13.53;2.23;;;1.50;1.00;;;;;;5035044;28;21001;-49
2024/01/15 09:58:51;;;;;;;7.90;2.03;;;1.40;1.00;;;;;;5034430;28;20426;-49
2024/01/15 10:01:17;;;;;;;7.40;1.70;;;1.30;99.90;;;;;;5035120;28;20274;-49
2024/01/15 10:03:42;;;;;;;13.40;2.10;;;1.30;1.00;;;;;;5035394;28;20497;-49
2024/01/15 10:06:09;;;;;;;11.93;2.20;;;1.30;22.90;;;;;;5035496;28;20525;-49
2024/01/15 10:08:37;;;;;;;7.97;1.50;;;1.30;1.70;;;;;;5034513;28;20699;-48
2024/01/15 10:11:04;;;;;;;6.80;1.40;;;1.30;1.00;;;;;;5035281;28;20414;-49
2024/01/15 10:13:31;;;;;;;10.63;1.47;;;1.30;99.90;;;;;;5034946;28;20446;-48
2024/01/15 10:15:58;;;;;;;9.23;1.30;;;1.30;1.00;;;;;;5035286;28;20418;-49
2024/01/15 10:18:23;;;;;;;13.30;1.33;;;1.40;1.00;;;;;;5034547;28;20478;-48
2024/01/15 10:20:49;;;;;;;4.27;1.47;;;1.40;1.00;;;;;;5034593;28;20548;-49
2024/01/15 10:23:15;;;;;;;4.07;1.20;;;1.40;1.00;;;;;;5034872;28;20190;-49
2024/01/15 10:25:42;;;;;;;3.23;1.23;;;1.50;1.00;;;;;;5034764;28;20180;-49
2024/01/15 10:28:08;;;;;;;4.30;1.20;;;1.50;1.00;;;;;;5034788;28;20425;-48
2024/01/15 10:30:33;;;;;;;5.47;1.43;;;1.60;1.00;;;;;;5034691;28;20415;-49
2024/01/15 10:33:01;;;;;;;6.47;1.70;;;1.60;1.00;;;;;;5034691;28;20269;-49
2024/01/15 10:35:29;;;;;;;3.70;1.40;;;1.70;1.00;;;;;;5034272;28;20191;-48
2024/01/15 10:37:54;;;;;;;6.03;2.13;;;1.70;1.00;;;;;;5034556;28;20458;-47
2024/01/15 10:40:20;;;;;;;7.30;1.90;;;1.70;1.00;;;;;;5034174;28;20772;-49
2024/01/15 10:42:47;;;;;;;10.50;1.70;;;1.70;1.00;;;;;;5034038;28;20233;-48
2024/01/15 10:45:16;;;;;;;9.13;1.80;;;1.70;1.00;;;;;;5034471;28;20175;-48
2024/01/15 10:47:42;;;;;;;4.60;1.60;;;1.70;1.00;;;;;;5034483;28;20418;-48
2024/01/15 10:50:09;;;;;;;6.20;1.80;;;1.60;1.00;;;;;;5034569;28;20418;-49
2024/01/15 10:52:40;;;;;;;5.40;1.70;;;1.60;1.00;;;;;;5034512;28;20418;-48
2024/01/15 10:55:08;;;;;;;7.40;1.80;;;1.50;1.00;;;;;;5034267;28;20916;-49
2024/01/15 10:57:35;;;;;;;5.03;1.90;;;1.40;1.00;;;;;;5034355;28;20489;-49
2024/01/15 11:00:05;;;;;;;6.87;2.23;;;1.40;1.00;;;;;;5033778;28;20979;-49
2024/01/15 11:02:35;;;;;;;5.50;1.57;;;1.40;1.00;;;;;;5034317;28;20509;-49
2024/01/15 11:05:00;;;;;;;9.73;2.00;;;1.40;1.00;;;;;;5034042;28;20421;-49
2024/01/15 11:07:26;;;;;;;3.43;1.70;;;1.40;1.00;;;;;;5032944;28;20933;-49
2024/01/15 11:09:52;;;;;;;6.73;2.33;;;1.40;1.00;;;;;;5033294;28;20246;-49
2024/01/15 11:12:19;;;;;;;7.10;1.87;;;1.40;1.00;;;;;;5033359;28;20410;-49
2024/01/15 11:14:49;;;;;;;5.70;2.10;;;1.50;1.00;;;;;;5032943;28;20191;-50
2024/01/15 11:17:16;;;;;;;9.33;4.67;;;1.50;1.00;;;;;;5032628;28;20466;-49
2024/01/15 11:19:42;;;;;;;6.23;2.20;;;1.50;1.00;;;;;;5032753;28;20469;-50
2024/01/15 11:22:30;;;;;;;3.10;1.80;;;1.50;1.00;;;;;;5029697;28;20885;-49
2024/01/15 11:24:56;;;;;;;4.40;1.40;;;1.50;1.00;;;;;;5031399;28;20531;-48
2024/01/15 11:27:44;;;;;;;2.63;1.40;;;1.50;1.00;;;;;;5030658;28;20426;-49
2024/01/15 11:30:11;;;;;;;4.80;2.00;;;1.50;1.00;;;;;;5032854;28;20418;-49
2024/01/15 11:32:41;;;;;;;2.50;1.70;;;1.50;1.00;;;;;;5032800;28;20468;-49
2024/01/15 11:35:08;;;;;;;5.50;1.77;;;1.40;1.00;;;;;;5032739;28;20924;-49
2024/01/15 11:37:54;;;;;;;3.03;2.00;;;1.40;3.00;;;;;;5032604;28;20469;-49
2024/01/15 11:40:39;;;;;;;10.77;2.50;;;1.50;22.90;;;;;;5032649;28;20418;-49
2024/01/15 11:43:09;;;;;;;5.60;2.20;;;1.60;37.90;;;;;;5031036;28;20414;-49
2024/01/15 11:45:35;;;;;;;4.80;2.60;;;1.70;17.70;;;;;;5029937;28;21000;-49
2024/01/15 11:48:19;;;;;;;1.90;1.70;;;1.70;1.00;;;;;;5029645;28;20423;-49
2024/01/15 11:50:46;;;;;;;1.97;1.73;;;1.70;1.00;;;;;;5030063;28;20532;-50
2024/01/15 11:53:43;;;;;;;2.80;2.13;;;1.70;1.00;;;;;;5030242;28;20823;-49
2024/01/15 11:56:16;;;;;;;3.30;2.20;;;1.70;1.00;;;;;;5030328;28;20489;-49
2024/01/15 11:58:42;;;;;;;4.23;1.90;;;1.60;1.00;;;;;;5031109;28;20411;-49
2024/01/15 12:01:08;;;;;;;5.67;2.03;;;1.60;1.00;;;;;;5028885;28;20429;-50
2024/01/15 12:03:34;;;;;;;4.13;2.23;;;1.60;1.00;;;;;;5030801;28;20422;-49
2024/01/15 12:06:01;;;;;;;10.50;1.73;;;1.60;1.00;;;;;;5031065;28;20183;-49
2024/01/15 12:08:27;;;;;;;5.30;2.17;;;1.60;1.00;;;;;;4989346;28;1145775;-48
2024/01/15 12:10:53;;;;;;;5.97;2.67;;;1.60;1.00;;;;;;5030292;28;20183;-47
2024/01/15 12:13:19;;;;;;;5.63;2.23;;;1.60;1.00;;;;;;5029780;28;20192;-48
2024/01/15 12:15:47;;;;;;;6.23;1.73;;;1.60;1.00;;;;;;5030448;28;20414;-48
2024/01/15 12:18:15;;;;;;;3.13;1.70;;;1.50;1.00;;;;;;5031171;28;20951;-48
2024/01/15 12:20:42;;;;;;;3.63;2.63;;;1.40;1.00;;;;;;5031416;28;20452;-48
2024/01/15 12:23:08;;;;;;;6.23;2.10;;;1.40;1.00;;;;;;5034184;28;20997;-48
2024/01/15 12:25:34;;;;;;;3.20;1.90;;;1.30;1.00;;;;;;5034039;28;20780;-48
2024/01/15 12:28:01;;;;;;;2.33;2.13;;;1.30;1.00;;;;;;5034567;28;20441;-48
2024/01/15 12:30:27;;;;;;;7.90;2.80;;;1.30;1.00;;;;;;5035194;28;20418;-47
2024/01/15 12:32:53;;;;;;;3.67;2.40;;;1.30;1.00;;;;;;5035224;28;20428;-48
2024/01/15 12:35:19;;;;;;;4.40;2.20;;;1.30;20.20;;;;;;5034026;28;20422;-48
2024/01/15 12:37:46;;;;;;;2.80;2.17;;;1.40;21.00;;;;;;5034624;28;20326;-48
2024/01/15 12:40:12;;;;;;;3.77;1.93;;;1.40;7.30;;;;;;5034089;28;20571;-48
2024/01/15 12:42:40;;;;;;;6.27;2.47;;;1.40;9.20;;;;;;5034984;28;20521;-48
2024/01/15 12:45:06;;;;;;;9.57;5.13;;;1.40;5.70;;;;;;5034033;28;20424;-48
2024/01/15 12:47:32;;;;;;;10.00;2.80;;;1.40;7.50;;;;;;5034628;28;20422;-48
2024/01/15 12:50:01;;;;;;;5.03;2.50;;;1.40;1.00;;;;;;5033890;28;20928;-48
2024/01/15 12:52:28;;;;;;;4.60;2.33;;;1.40;2.70;;;;;;5034307;28;20434;-48
2024/01/15 12:54:54;;;;;;;2.77;2.10;;;1.40;11.10;;;;;;5033349;28;20449;-49